Estación Meteorológica Peña el Pijo (Robertgarden) [ 07/21/19 02:57:06 CEST ]

Fecha Hora Presion(HPa) Temp (°C) Humedad % Rocio (°C) Viento ( m/s) Direccion Lluvia 1Hora(mm) Lluvia 24H(mm) LLuvia Total(mm)
2018-Nov-29 01:01:50 1012.300 -0.3 61 -6.9         154.88
2018-Nov-29 02:10:07 1011.500 -0.4 63 -6.6         154.88
2018-Nov-29 03:04:12 1011.400 -0.1 62 -6.5         154.88
2018-Nov-29 04:01:48 1011.100 -0.9 65 -6.7         154.88
2018-Nov-29 05:01:51 1011.000 -1.6 66 -7.1         154.88
2018-Nov-29 06:01:42 1010.800 -2.2 69 -7.1         154.88
2018-Nov-29 07:01:43 1011.000 -1.9 70 -6.6         154.88
2018-Nov-29 08:01:42 1011.400 -2.5 71 -7.0         154.88
2018-Nov-29 09:01:55 1011.500 -2.4 73 -6.6         154.88
2018-Nov-29 10:01:39 1011.600 6.4 69 1.1         154.88
2018-Nov-29 11:01:44 1011.300 13.4 42 1.0         154.88
2018-Nov-29 12:01:47 1010.500 17.7 31 -0.1         154.88
2018-Nov-29 13:01:43 1009.100 19.2 24 -2.1         154.88
2018-Nov-29 14:01:56 1008.200 22.1 20 -1.9         154.88
2018-Nov-29 15:01:40 1007.900 20.6 21 -2.6         154.88
2018-Nov-29 16:01:34 1008.200 17.8 24 -3.3         154.88
2018-Nov-29 17:01:42 1008.700 15.6 24 -5.1         154.88
2018-Nov-29 18:01:35 1009.200 11.4 32 -4.8         154.88
2018-Nov-29 19:01:35 1008.900 7.8 45 -3.5         154.88
2018-Nov-29 20:01:47 1008.800 7.3 47 -3.3         154.88
2018-Nov-29 21:01:58 1008.900 5.8 50 -3.8         154.88
2018-Nov-29 22:01:49 1008.600 4.2 55 -4.1         154.88
2018-Nov-29 23:01:53 1008.600 3.5 59 -3.8         154.88

Temperatura Máxima:22°    Temperatura Mínima:-2°
Presión Máxima:1012.300 Hpa    Presión Mínima:1007.900 Hpa


Volver